sensor_id;sensor_type;location;lat;lon;timestamp;pressure;altitude;pressure_sealevel;temperature;humidity
71194;BME280;58903;47.210;8.618;2023-05-11T00:02:32;94086.06;;;26.55;43.88
71194;BME280;58903;47.210;8.618;2023-05-11T00:05:27;94089.56;;;26.55;43.43
71194;BME280;58903;47.210;8.618;2023-05-11T00:08:08;94077.47;;;26.58;43.33
71194;BME280;58903;47.210;8.618;2023-05-11T00:14:12;94076.00;;;26.57;43.66
71194;BME280;58903;47.210;8.618;2023-05-11T00:16:47;94077.78;;;26.55;43.52
71194;BME280;58903;47.210;8.618;2023-05-11T00:19:23;94074.50;;;26.56;43.15
71194;BME280;58903;47.210;8.618;2023-05-11T00:22:27;94068.75;;;26.54;43.29
71194;BME280;58903;47.210;8.618;2023-05-11T00:24:53;94072.03;;;26.53;43.38
71194;BME280;58903;47.210;8.618;2023-05-11T00:27:34;94075.03;;;26.55;43.48
71194;BME280;58903;47.210;8.618;2023-05-11T00:30:00;94066.00;;;26.54;42.92
71194;BME280;58903;47.210;8.618;2023-05-11T00:32:30;94068.22;;;26.56;42.86
71194;BME280;58903;47.210;8.618;2023-05-11T00:35:08;94075.78;;;26.55;43.47
71194;BME280;58903;47.210;8.618;2023-05-11T00:37:37;94070.75;;;26.54;43.32
71194;BME280;58903;47.210;8.618;2023-05-11T00:40:14;94075.56;;;26.53;43.14
71194;BME280;58903;47.210;8.618;2023-05-11T00:42:51;94061.00;;;26.53;43.35
71194;BME280;58903;47.210;8.618;2023-05-11T00:45:53;94059.28;;;26.50;43.19
71194;BME280;58903;47.210;8.618;2023-05-11T00:48:32;94065.34;;;26.48;43.23
71194;BME280;58903;47.210;8.618;2023-05-11T00:51:09;94064.81;;;26.50;42.96
71194;BME280;58903;47.210;8.618;2023-05-11T00:53:36;94062.59;;;26.48;43.26
71194;BME280;58903;47.210;8.618;2023-05-11T00:56:05;94061.84;;;26.48;43.67
71194;BME280;58903;47.210;8.618;2023-05-11T00:58:51;94064.38;;;26.46;43.08
71194;BME280;58903;47.210;8.618;2023-05-11T01:01:52;94068.09;;;26.48;43.52
71194;BME280;58903;47.210;8.618;2023-05-11T01:04:19;94070.31;;;26.50;43.60
71194;BME280;58903;47.210;8.618;2023-05-11T01:13:25;94063.34;;;26.49;43.67
71194;BME280;58903;47.210;8.618;2023-05-11T01:26:08;94064.69;;;26.42;43.74
71194;BME280;58903;47.210;8.618;2023-05-11T01:31:33;94065.19;;;26.41;43.43
71194;BME280;58903;47.210;8.618;2023-05-11T01:34:17;94065.19;;;26.41;43.34
71194;BME280;58903;47.210;8.618;2023-05-11T01:37:13;94057.44;;;26.39;43.58
71194;BME280;58903;47.210;8.618;2023-05-11T01:43:21;94053.94;;;26.39;43.52
71194;BME280;58903;47.210;8.618;2023-05-11T01:45:59;94050.22;;;26.36;43.96
71194;BME280;58903;47.210;8.618;2023-05-11T01:48:33;94053.72;;;26.37;43.37
71194;BME280;58903;47.210;8.618;2023-05-11T01:51:01;94064.75;;;26.37;43.81
71194;BME280;58903;47.210;8.618;2023-05-11T01:53:34;94061.25;;;26.36;43.23
71194;BME280;58903;47.210;8.618;2023-05-11T01:56:03;94056.47;;;26.37;43.17
71194;BME280;58903;47.210;8.618;2023-05-11T01:58:31;94059.78;;;26.35;43.50
71194;BME280;58903;47.210;8.618;2023-05-11T02:01:04;94057.97;;;26.38;43.58
71194;BME280;58903;47.210;8.618;2023-05-11T02:03:34;94054.25;;;26.35;43.13
71194;BME280;58903;47.210;8.618;2023-05-11T02:06:24;94050.22;;;26.36;43.53
71194;BME280;58903;47.210;8.618;2023-05-11T02:08:56;94056.47;;;26.37;42.81
71194;BME280;58903;47.210;8.618;2023-05-11T02:11:47;94058.28;;;26.34;43.22
71194;BME280;58903;47.210;8.618;2023-05-11T02:14:34;94049.78;;;26.32;43.62
71194;BME280;58903;47.210;8.618;2023-05-11T02:17:12;94044.56;;;26.29;43.30
71194;BME280;58903;47.210;8.618;2023-05-11T02:19:43;94050.09;;;26.29;43.84
71194;BME280;58903;47.210;8.618;2023-05-11T02:22:11;94047.34;;;26.29;43.18
71194;BME280;58903;47.210;8.618;2023-05-11T02:24:41;94044.34;;;26.27;43.43
71194;BME280;58903;47.210;8.618;2023-05-11T02:27:35;94050.09;;;26.29;44.02
71194;BME280;58903;47.210;8.618;2023-05-11T02:30:33;94050.84;;;26.29;43.63
71194;BME280;58903;47.210;8.618;2023-05-11T02:33:20;94046.59;;;26.28;43.82
71194;BME280;58903;47.210;8.618;2023-05-11T02:36:01;94045.84;;;26.28;44.13
71194;BME280;58903;47.210;8.618;2023-05-11T02:38:36;94040.31;;;26.28;43.81
71194;BME280;58903;47.210;8.618;2023-05-11T02:41:08;94045.63;;;26.26;43.43
71194;BME280;58903;47.210;8.618;2023-05-11T02:43:43;94044.13;;;26.25;42.98
71194;BME280;58903;47.210;8.618;2023-05-11T02:46:17;94038.09;;;26.26;43.28
71194;BME280;58903;47.210;8.618;2023-05-11T02:48:51;94036.09;;;26.27;43.28
71194;BME280;58903;47.210;8.618;2023-05-11T02:51:27;94041.59;;;26.27;43.13
71194;BME280;58903;47.210;8.618;2023-05-11T02:53:58;94037.56;;;26.28;43.46
71194;BME280;58903;47.210;8.618;2023-05-11T02:56:28;94037.56;;;26.28;43.31
71194;BME280;58903;47.210;8.618;2023-05-11T02:59:11;94033.88;;;26.25;43.11
71194;BME280;58903;47.210;8.618;2023-05-11T03:01:56;94026.63;;;26.22;43.71
71194;BME280;58903;47.210;8.618;2023-05-11T03:04:33;94027.16;;;26.21;43.47
71194;BME280;58903;47.210;8.618;2023-05-11T03:07:26;94032.38;;;26.24;43.32
71194;BME280;58903;47.210;8.618;2023-05-11T03:09:54;94029.38;;;26.22;43.90
71194;BME280;58903;47.210;8.618;2023-05-11T03:12:38;94032.38;;;26.24;43.63
71194;BME280;58903;47.210;8.618;2023-05-11T03:15:09;94026.84;;;26.24;43.94
71194;BME280;58903;47.210;8.618;2023-05-11T03:18:09;94026.84;;;26.24;43.96
71194;BME280;58903;47.210;8.618;2023-05-11T03:21:07;94027.16;;;26.21;43.22
71194;BME280;58903;47.210;8.618;2023-05-11T03:23:43;94021.66;;;26.21;43.64
71194;BME280;58903;47.210;8.618;2023-05-11T03:26:22;94025.44;;;26.17;43.66
71194;BME280;58903;47.210;8.618;2023-05-11T03:29:15;94028.94;;;26.18;43.25
71194;BME280;58903;47.210;8.618;2023-05-11T03:32:23;94017.38;;;26.20;43.63
71194;BME280;58903;47.210;8.618;2023-05-11T03:34:51;94022.91;;;26.20;43.33
71194;BME280;58903;47.210;8.618;2023-05-11T03:37:30;94020.38;;;26.22;43.61
71194;BME280;58903;47.210;8.618;2023-05-11T03:40:31;94017.81;;;26.24;43.73
71194;BME280;58903;47.210;8.618;2023-05-11T03:43:03;94016.84;;;26.21;43.78
71194;BME280;58903;47.210;8.618;2023-05-11T03:46:06;94017.81;;;26.24;43.72
71194;BME280;58903;47.210;8.618;2023-05-11T03:52:27;94021.66;;;26.21;43.81
71194;BME280;58903;47.210;8.618;2023-05-11T03:55:02;94013.88;;;26.19;43.97
71194;BME280;58903;47.210;8.618;2023-05-11T03:57:40;94014.41;;;26.17;43.36
71194;BME280;58903;47.210;8.618;2023-05-11T04:00:30;94022.38;;;26.21;43.23
71194;BME280;58903;47.210;8.618;2023-05-11T04:03:08;94018.66;;;26.19;43.31
71194;BME280;58903;47.210;8.618;2023-05-11T04:06:01;94017.91;;;26.18;43.64
71194;BME280;58903;47.210;8.618;2023-05-11T04:09:06;94018.88;;;26.21;43.15
71194;BME280;58903;47.210;8.618;2023-05-11T04:11:51;94013.88;;;26.19;43.38
71194;BME280;58903;47.210;8.618;2023-05-11T04:14:29;94015.91;;;26.19;43.73
71194;BME280;58903;47.210;8.618;2023-05-11T04:17:04;94012.19;;;26.16;43.71
71194;BME280;58903;47.210;8.618;2023-05-11T04:20:02;94007.94;;;26.15;43.75
71194;BME280;58903;47.210;8.618;2023-05-11T04:22:48;93997.44;;;26.13;43.92
71194;BME280;58903;47.210;8.618;2023-05-11T04:25:16;94001.22;;;26.10;43.38
71194;BME280;58903;47.210;8.618;2023-05-11T04:28:07;94002.41;;;26.15;43.22
71194;BME280;58903;47.210;8.618;2023-05-11T04:30:56;94003.47;;;26.12;43.64
71194;BME280;58903;47.210;8.618;2023-05-11T04:33:46;94005.69;;;26.13;44.06
71194;BME280;58903;47.210;8.618;2023-05-11T04:36:32;93999.44;;;26.13;43.81
71194;BME280;58903;47.210;8.618;2023-05-11T04:39:18;94004.41;;;26.14;43.48
71194;BME280;58903;47.210;8.618;2023-05-11T04:41:45;94012.69;;;26.14;43.37
71194;BME280;58903;47.210;8.618;2023-05-11T04:44:51;94002.94;;;26.13;43.64
71194;BME280;58903;47.210;8.618;2023-05-11T04:47:24;94011.00;;;26.11;43.61
71194;BME280;58903;47.210;8.618;2023-05-11T04:50:20;94011.75;;;26.12;43.91
71194;BME280;58903;47.210;8.618;2023-05-11T04:52:57;94015.97;;;26.13;43.32
71194;BME280;58903;47.210;8.618;2023-05-11T04:55:23;94017.00;;;26.10;43.17
71194;BME280;58903;47.210;8.618;2023-05-11T04:57:50;94006.28;;;26.06;44.07
71194;BME280;58903;47.210;8.618;2023-05-11T05:03:56;94014.78;;;26.08;43.66
71194;BME280;58903;47.210;8.618;2023-05-11T05:06:33;94017.53;;;26.08;43.98
71194;BME280;58903;47.210;8.618;2023-05-11T05:09:33;94014.53;;;26.06;44.28
71194;BME280;58903;47.210;8.618;2023-05-11T05:12:01;94013.78;;;26.06;43.81
71194;BME280;58903;47.210;8.618;2023-05-11T05:14:28;94013.34;;;26.02;43.79
71194;BME280;58903;47.210;8.618;2023-05-11T05:20:08;94024.09;;;26.05;44.04
71194;BME280;58903;47.210;8.618;2023-05-11T05:22:52;94018.34;;;26.03;44.43
71194;BME280;58903;47.210;8.618;2023-05-11T05:25:36;94024.81;;;26.06;43.88
71194;BME280;58903;47.210;8.618;2023-05-11T05:28:36;94021.81;;;26.09;43.71
71194;BME280;58903;47.210;8.618;2023-05-11T05:31:13;94022.25;;;26.13;43.62
71194;BME280;58903;47.210;8.618;2023-05-11T05:33:56;94023.94;;;26.16;43.81
71194;BME280;58903;47.210;8.618;2023-05-11T05:36:47;94016.13;;;26.21;43.44
71194;BME280;58903;47.210;8.618;2023-05-11T05:39:19;94030.63;;;26.21;43.10
71194;BME280;58903;47.210;8.618;2023-05-11T05:42:02;94025.59;;;26.25;43.08
71194;BME280;58903;47.210;8.618;2023-05-11T05:44:36;94022.84;;;26.25;44.04
71194;BME280;58903;47.210;8.618;2023-05-11T05:47:08;94023.56;;;26.26;43.42
71194;BME280;58903;47.210;8.618;2023-05-11T05:49:40;94020.28;;;26.27;44.00
71194;BME280;58903;47.210;8.618;2023-05-11T05:52:22;94021.03;;;26.28;43.93
71194;BME280;58903;47.210;8.618;2023-05-11T05:54:50;94022.53;;;26.29;43.69
71194;BME280;58903;47.210;8.618;2023-05-11T06:00:37;94020.50;;;26.29;43.93
71194;BME280;58903;47.210;8.618;2023-05-11T06:03:17;94019.97;;;26.31;43.74
71194;BME280;58903;47.210;8.618;2023-05-11T06:05:49;94014.78;;;26.27;43.88
71194;BME280;58903;47.210;8.618;2023-05-11T06:08:20;94030.25;;;26.30;43.44
71194;BME280;58903;47.210;8.618;2023-05-11T06:11:03;94022.53;;;26.29;43.90
71194;BME280;58903;47.210;8.618;2023-05-11T06:13:30;94021.03;;;26.28;43.28
71194;BME280;58903;47.210;8.618;2023-05-11T06:16:05;94028.47;;;26.33;43.10
71194;BME280;58903;47.210;8.618;2023-05-11T06:18:35;94017.97;;;26.31;42.91
71194;BME280;58903;47.210;8.618;2023-05-11T06:21:10;94022.97;;;26.33;43.52
71194;BME280;58903;47.210;8.618;2023-05-11T06:23:49;94029.34;;;26.41;43.58
71194;BME280;58903;47.210;8.618;2023-05-11T06:26:15;94022.47;;;26.47;43.16
71194;BME280;58903;47.210;8.618;2023-05-11T06:28:45;94019.63;;;26.53;42.56
71194;BME280;58903;47.210;8.618;2023-05-11T06:31:26;94017.22;;;26.62;42.95
71194;BME280;58903;47.210;8.618;2023-05-11T06:34:00;94018.19;;;26.65;42.90
71194;BME280;58903;47.210;8.618;2023-05-11T06:36:36;94015.06;;;26.74;43.23
71194;BME280;58903;47.210;8.618;2023-05-11T06:39:21;94019.97;;;26.81;43.17
71194;BME280;58903;47.210;8.618;2023-05-11T06:45:19;94008.19;;;26.94;42.98
71194;BME280;58903;47.210;8.618;2023-05-11T06:48:14;94001.84;;;26.99;42.65
71194;BME280;58903;47.210;8.618;2023-05-11T06:53:55;94002.69;;;27.07;42.36
71194;BME280;58903;47.210;8.618;2023-05-11T06:56:20;93996.63;;;27.08;42.37
71194;BME280;58903;47.210;8.618;2023-05-11T06:58:57;93994.28;;;27.12;42.71
71194;BME280;58903;47.210;8.618;2023-05-11T07:01:25;94002.56;;;27.12;42.39
71194;BME280;58903;47.210;8.618;2023-05-11T07:03:55;94003.53;;;27.15;42.59
71194;BME280;58903;47.210;8.618;2023-05-11T07:06:21;94007.78;;;27.16;42.60
71194;BME280;58903;47.210;8.618;2023-05-11T07:08:50;94007.25;;;27.17;42.49
71194;BME280;58903;47.210;8.618;2023-05-11T07:14:41;94010.34;;;27.14;42.79
71194;BME280;58903;47.210;8.618;2023-05-11T07:17:16;94012.56;;;27.15;42.60
71194;BME280;58903;47.210;8.618;2023-05-11T07:19:42;94013.84;;;27.14;42.41
71194;BME280;58903;47.210;8.618;2023-05-11T07:22:20;94008.31;;;27.14;42.23
71194;BME280;58903;47.210;8.618;2023-05-11T07:24:48;94012.34;;;27.13;42.18
71194;BME280;58903;47.210;8.618;2023-05-11T07:27:16;94006.81;;;27.13;42.38
71194;BME280;58903;47.210;8.618;2023-05-11T07:29:42;94014.06;;;27.16;42.29
71194;BME280;58903;47.210;8.618;2023-05-11T07:32:17;94012.56;;;27.15;42.19
71194;BME280;58903;47.210;8.618;2023-05-11T07:34:54;94013.84;;;27.14;42.38
71194;BME280;58903;47.210;8.618;2023-05-11T07:37:24;94019.38;;;27.14;41.82
71194;BME280;58903;47.210;8.618;2023-05-11T07:39:52;94008.09;;;27.12;42.29
71194;BME280;58903;47.210;8.618;2023-05-11T07:42:31;94014.69;;;27.09;42.20
71194;BME280;58903;47.210;8.618;2023-05-11T07:44:57;94014.16;;;27.11;43.05
71194;BME280;58903;47.210;8.618;2023-05-11T07:47:29;94008.63;;;27.11;42.50
71194;BME280;58903;47.210;8.618;2023-05-11T07:50:04;94011.94;;;27.09;42.56
71194;BME280;58903;47.210;8.618;2023-05-11T07:52:39;94009.69;;;27.08;42.38
71194;BME280;58903;47.210;8.618;2023-05-11T07:55:17;94017.97;;;27.08;42.12
71194;BME280;58903;47.210;8.618;2023-05-11T07:57:52;94013.19;;;27.08;42.54
71194;BME280;58903;47.210;8.618;2023-05-11T08:00:35;94012.22;;;27.06;42.50
71194;BME280;58903;47.210;8.618;2023-05-11T08:03:07;94017.03;;;27.05;42.46
71194;BME280;58903;47.210;8.618;2023-05-11T08:05:35;94000.97;;;27.04;42.46
71194;BME280;58903;47.210;8.618;2023-05-11T08:08:05;94003.72;;;27.04;43.10
71194;BME280;58903;47.210;8.618;2023-05-11T08:10:31;94006.28;;;27.02;42.51
71194;BME280;58903;47.210;8.618;2023-05-11T08:12:57;94003.31;;;27.00;42.72
71194;BME280;58903;47.210;8.618;2023-05-11T08:15:28;94001.84;;;26.99;42.78
71194;BME280;58903;47.210;8.618;2023-05-11T08:18:09;94004.59;;;26.99;42.74
71194;BME280;58903;47.210;8.618;2023-05-11T08:20:59;94003.31;;;27.00;42.90
71194;BME280;58903;47.210;8.618;2023-05-11T08:23:34;94000.88;;;26.96;42.76
71194;BME280;58903;47.210;8.618;2023-05-11T08:26:03;94003.09;;;26.98;43.21
71194;BME280;58903;47.210;8.618;2023-05-11T08:28:37;94006.41;;;26.96;42.75
71194;BME280;58903;47.210;8.618;2023-05-11T08:31:16;93998.66;;;26.95;42.47
71194;BME280;58903;47.210;8.618;2023-05-11T08:34:09;94007.66;;;26.95;42.81
71194;BME280;58903;47.210;8.618;2023-05-11T08:36:43;94008.19;;;26.94;42.86
71194;BME280;58903;47.210;8.618;2023-05-11T08:39:10;94001.41;;;26.95;42.38
71194;BME280;58903;47.210;8.618;2023-05-11T08:41:38;93995.34;;;26.96;42.89
71194;BME280;58903;47.210;8.618;2023-05-11T08:44:12;94007.88;;;26.97;42.67
71194;BME280;58903;47.210;8.618;2023-05-11T08:46:44;93993.84;;;26.95;42.89
71194;BME280;58903;47.210;8.618;2023-05-11T08:49:22;93998.66;;;26.95;43.10
71194;BME280;58903;47.210;8.618;2023-05-11T08:52:08;93997.16;;;26.94;42.76
71194;BME280;58903;47.210;8.618;2023-05-11T08:54:37;93991.09;;;26.95;42.86
71194;BME280;58903;47.210;8.618;2023-05-11T08:57:05;93988.13;;;26.93;42.36
71194;BME280;58903;47.210;8.618;2023-05-11T08:59:40;93993.13;;;26.95;42.64
71194;BME280;58903;47.210;8.618;2023-05-11T09:02:18;93994.59;;;26.96;42.41
71194;BME280;58903;47.210;8.618;2023-05-11T09:04:45;93992.59;;;26.96;42.93
71194;BME280;58903;47.210;8.618;2023-05-11T09:07:16;93997.16;;;26.94;43.18
71194;BME280;58903;47.210;8.618;2023-05-11T09:09:55;93999.69;;;26.92;42.52
71194;BME280;58903;47.210;8.618;2023-05-11T09:12:58;93996.72;;;26.89;42.83
71194;BME280;58903;47.210;8.618;2023-05-11T09:15:30;93997.25;;;26.88;42.44
71194;BME280;58903;47.210;8.618;2023-05-11T09:18:32;93995.00;;;26.86;43.03
71194;BME280;58903;47.210;8.618;2023-05-11T09:21:00;93988.53;;;26.84;43.07
71194;BME280;58903;47.210;8.618;2023-05-11T09:26:35;93980.78;;;26.82;42.67
71194;BME280;58903;47.210;8.618;2023-05-11T09:29:03;93984.50;;;26.85;43.19
71194;BME280;58903;47.210;8.618;2023-05-11T09:31:46;93978.78;;;26.83;43.46
71194;BME280;58903;47.210;8.618;2023-05-11T09:34:23;93986.00;;;26.86;42.91
71194;BME280;58903;47.210;8.618;2023-05-11T09:37:32;93982.50;;;26.85;42.76
71194;BME280;58903;47.210;8.618;2023-05-11T09:40:08;93979.75;;;26.85;42.80
71194;BME280;58903;47.210;8.618;2023-05-11T09:42:34;93983.00;;;26.84;42.96
71194;BME280;58903;47.210;8.618;2023-05-11T09:45:03;93977.06;;;26.80;42.75
71194;BME280;58903;47.210;8.618;2023-05-11T09:47:39;93982.78;;;26.82;43.05
71194;BME280;58903;47.210;8.618;2023-05-11T09:50:15;93986.84;;;26.81;42.76
71194;BME280;58903;47.210;8.618;2023-05-11T09:52:57;93981.53;;;26.83;42.85
71194;BME280;58903;47.210;8.618;2023-05-11T09:55:59;93980.78;;;26.82;43.16
71194;BME280;58903;47.210;8.618;2023-05-11T09:59:00;93976.09;;;26.77;43.34
71194;BME280;58903;47.210;8.618;2023-05-11T10:01:36;93968.56;;;26.78;43.35
71194;BME280;58903;47.210;8.618;2023-05-11T10:04:05;93968.56;;;26.78;42.92
71194;BME280;58903;47.210;8.618;2023-05-11T10:09:16;93960.84;;;26.76;43.34
71194;BME280;58903;47.210;8.618;2023-05-11T10:12:00;93963.38;;;26.74;43.58
71194;BME280;58903;47.210;8.618;2023-05-11T10:14:32;93964.84;;;26.75;43.88
71194;BME280;58903;47.210;8.618;2023-05-11T10:17:00;93972.63;;;26.77;43.96
71194;BME280;58903;47.210;8.618;2023-05-11T10:19:28;93962.31;;;26.77;44.27
71194;BME280;58903;47.210;8.618;2023-05-11T10:21:54;93963.06;;;26.78;43.88
71194;BME280;58903;47.210;8.618;2023-05-11T10:24:57;93958.81;;;26.77;43.96
71194;BME280;58903;47.210;8.618;2023-05-11T10:27:35;93947.78;;;26.77;44.05
71194;BME280;58903;47.210;8.618;2023-05-11T10:30:23;93957.53;;;26.78;44.20
71194;BME280;58903;47.210;8.618;2023-05-11T10:32:50;93950.53;;;26.77;44.17
71194;BME280;58903;47.210;8.618;2023-05-11T10:38:35;93947.78;;;26.77;44.48
71194;BME280;58903;47.210;8.618;2023-05-11T10:41:31;93945.75;;;26.77;44.72
71194;BME280;58903;47.210;8.618;2023-05-11T10:54:19;93944.50;;;26.78;44.84
71194;BME280;58903;47.210;8.618;2023-05-11T10:57:09;93944.50;;;26.78;44.58
71194;BME280;58903;47.210;8.618;2023-05-11T11:02:49;93936.97;;;26.79;45.20
71194;BME280;58903;47.210;8.618;2023-05-11T11:05:41;93925.94;;;26.79;45.17
71194;BME280;58903;47.210;8.618;2023-05-11T11:08:19;93923.16;;;26.79;45.14
71194;BME280;58903;47.210;8.618;2023-05-11T11:10:51;93909.88;;;26.77;44.91
71194;BME280;58903;47.210;8.618;2023-05-11T11:13:28;93911.59;;;26.80;45.06
71194;BME280;58903;47.210;8.618;2023-05-11T11:16:22;93919.34;;;26.82;45.30
71194;BME280;58903;47.210;8.618;2023-05-11T11:25:14;93917.84;;;26.81;45.16
71194;BME280;58903;47.210;8.618;2023-05-11T11:30:28;93905.75;;;26.84;45.11
71194;BME280;58903;47.210;8.618;2023-05-11T11:42:12;93909.78;;;26.83;44.54
71194;BME280;58903;47.210;8.618;2023-05-11T11:44:40;93909.59;;;26.81;44.82
71194;BME280;58903;47.210;8.618;2023-05-11T11:49:43;93916.78;;;26.84;44.44
71194;BME280;58903;47.210;8.618;2023-05-11T11:52:34;93911.25;;;26.84;44.54
71194;BME280;58903;47.210;8.618;2023-05-11T11:55:02;93928.34;;;26.82;44.57
71194;BME280;58903;47.210;8.618;2023-05-11T11:59:55;93920.09;;;26.82;44.36
71194;BME280;58903;47.210;8.618;2023-05-11T12:02:21;93920.63;;;26.81;44.51
71194;BME280;58903;47.210;8.618;2023-05-11T12:04:59;93917.84;;;26.81;44.30
71194;BME280;58903;47.210;8.618;2023-05-11T12:07:33;93912.56;;;26.83;44.32
71194;BME280;58903;47.210;8.618;2023-05-11T12:10:04;93914.25;;;26.86;44.21
71194;BME280;58903;47.210;8.618;2023-05-11T12:12:30;93910.22;;;26.87;44.13
71194;BME280;58903;47.210;8.618;2023-05-11T12:14:56;93910.00;;;26.85;43.66
71194;BME280;58903;47.210;8.618;2023-05-11T12:17:28;93909.59;;;26.81;44.10
71194;BME280;58903;47.210;8.618;2023-05-11T12:20:13;93912.88;;;26.79;44.26
71194;BME280;58903;47.210;8.618;2023-05-11T12:22:39;93911.59;;;26.80;44.44
71194;BME280;58903;47.210;8.618;2023-05-11T12:25:07;93913.81;;;26.82;44.60
71194;BME280;58903;47.210;8.618;2023-05-11T12:27:33;93913.59;;;26.80;44.10
71194;BME280;58903;47.210;8.618;2023-05-11T12:29:59;93906.06;;;26.80;44.18
71194;BME280;58903;47.210;8.618;2023-05-11T12:32:30;93909.59;;;26.81;43.74
71194;BME280;58903;47.210;8.618;2023-05-11T12:35:01;93906.81;;;26.81;44.30
71194;BME280;58903;47.210;8.618;2023-05-11T12:37:31;93907.03;;;26.83;44.21
71194;BME280;58903;47.210;8.618;2023-05-11T12:39:59;93902.56;;;26.80;44.49
71194;BME280;58903;47.210;8.618;2023-05-11T12:42:25;93897.78;;;26.80;44.64
71194;BME280;58903;47.210;8.618;2023-05-11T12:44:53;93905.31;;;26.80;44.26
71194;BME280;58903;47.210;8.618;2023-05-11T12:47:19;93906.81;;;26.81;44.40
71194;BME280;58903;47.210;8.618;2023-05-11T12:49:53;93910.53;;;26.83;44.09
71194;BME280;58903;47.210;8.618;2023-05-11T12:52:22;93911.06;;;26.82;44.45
71194;BME280;58903;47.210;8.618;2023-05-11T12:54:49;93898.75;;;26.83;44.33
71194;BME280;58903;47.210;8.618;2023-05-11T13:00:14;93895.03;;;26.80;44.48
71194;BME280;58903;47.210;8.618;2023-05-11T13:02:53;93894.72;;;26.84;43.84
71194;BME280;58903;47.210;8.618;2023-05-11T13:05:25;93886.44;;;26.84;43.91
71194;BME280;58903;47.210;8.618;2023-05-11T13:07:59;93893.03;;;26.81;44.03
71194;BME280;58903;47.210;8.618;2023-05-11T13:10:28;93881.44;;;26.82;44.18
71194;BME280;58903;47.210;8.618;2023-05-11T13:12:55;93882.53;;;26.79;43.78
71194;BME280;58903;47.210;8.618;2023-05-11T13:15:23;93884.97;;;26.83;44.00
71194;BME280;58903;47.210;8.618;2023-05-11T13:18:01;93879.44;;;26.83;43.63
71194;BME280;58903;47.210;8.618;2023-05-11T13:20:31;93881.66;;;26.84;43.89
71194;BME280;58903;47.210;8.618;2023-05-11T13:23:14;93879.66;;;26.85;44.37
71194;BME280;58903;47.210;8.618;2023-05-11T13:25:55;93876.25;;;26.79;44.10
71194;BME280;58903;47.210;8.618;2023-05-11T13:28:22;93875.94;;;26.82;43.78
71194;BME280;58903;47.210;8.618;2023-05-11T13:31:02;93875.94;;;26.82;44.18
71194;BME280;58903;47.210;8.618;2023-05-11T13:33:33;93878.69;;;26.82;44.18
71194;BME280;58903;47.210;8.618;2023-05-11T13:36:18;93878.16;;;26.84;43.99
71194;BME280;58903;47.210;8.618;2023-05-11T13:39:04;93878.38;;;26.86;43.97
71194;BME280;58903;47.210;8.618;2023-05-11T13:41:55;93880.19;;;26.83;43.69
71194;BME280;58903;47.210;8.618;2023-05-11T13:44:41;93864.59;;;26.86;43.92
71194;BME280;58903;47.210;8.618;2023-05-11T13:47:10;93874.13;;;26.85;43.70
71194;BME280;58903;47.210;8.618;2023-05-11T13:50:06;93876.13;;;26.84;43.67
71194;BME280;58903;47.210;8.618;2023-05-11T13:52:32;93870.19;;;26.80;44.06
71194;BME280;58903;47.210;8.618;2023-05-11T13:55:29;93873.91;;;26.83;44.02
71194;BME280;58903;47.210;8.618;2023-05-11T13:58:06;93861.94;;;26.80;44.10
71194;BME280;58903;47.210;8.618;2023-05-11T14:00:43;93861.38;;;26.82;43.94
71194;BME280;58903;47.210;8.618;2023-05-11T14:03:19;93851.44;;;26.79;44.26
71194;BME280;58903;47.210;8.618;2023-05-11T14:05:57;93857.16;;;26.81;44.26
71194;BME280;58903;47.210;8.618;2023-05-11T14:08:34;93848.88;;;26.81;44.12
71194;BME280;58903;47.210;8.618;2023-05-11T14:11:09;93856.41;;;26.80;43.89
71194;BME280;58903;47.210;8.618;2023-05-11T14:13:54;93852.91;;;26.80;43.84
71194;BME280;58903;47.210;8.618;2023-05-11T14:16:32;93860.13;;;26.83;44.50
71194;BME280;58903;47.210;8.618;2023-05-11T14:19:01;93849.41;;;26.79;43.96
71194;BME280;58903;47.210;8.618;2023-05-11T14:21:30;93845.38;;;26.80;44.14
71194;BME280;58903;47.210;8.618;2023-05-11T14:23:58;93847.38;;;26.80;43.50
71194;BME280;58903;47.210;8.618;2023-05-11T14:26:27;93841.13;;;26.79;43.78
71194;BME280;58903;47.210;8.618;2023-05-11T14:28:55;93836.13;;;26.78;43.36
71194;BME280;58903;47.210;8.618;2023-05-11T14:31:21;93834.13;;;26.78;43.68
71194;BME280;58903;47.210;8.618;2023-05-11T14:33:56;93839.09;;;26.80;43.66
71194;BME280;58903;47.210;8.618;2023-05-11T14:36:32;93832.88;;;26.79;44.06
71194;BME280;58903;47.210;8.618;2023-05-11T14:38:59;93835.09;;;26.81;43.46
71194;BME280;58903;47.210;8.618;2023-05-11T14:41:38;93826.81;;;26.81;43.57
71194;BME280;58903;47.210;8.618;2023-05-11T14:44:23;93829.78;;;26.83;43.83
71194;BME280;58903;47.210;8.618;2023-05-11T14:47:04;93824.88;;;26.89;43.42
71194;BME280;58903;47.210;8.618;2023-05-11T14:49:32;93823.19;;;26.86;43.42
71194;BME280;58903;47.210;8.618;2023-05-11T14:52:28;93828.38;;;26.89;43.90
71194;BME280;58903;47.210;8.618;2023-05-11T14:55:03;93820.44;;;26.86;43.99
71194;BME280;58903;47.210;8.618;2023-05-11T14:57:51;93833.16;;;26.89;43.61
71194;BME280;58903;47.210;8.618;2023-05-11T15:00:19;93829.13;;;26.90;44.05
71194;BME280;58903;47.210;8.618;2023-05-11T15:03:03;93819.34;;;26.89;43.66
71194;BME280;58903;47.210;8.618;2023-05-11T15:05:33;93822.31;;;26.91;43.40
71194;BME280;58903;47.210;8.618;2023-05-11T15:07:59;93816.59;;;26.89;43.20
71194;BME280;58903;47.210;8.618;2023-05-11T15:10:37;93811.63;;;26.87;43.15
71194;BME280;58903;47.210;8.618;2023-05-11T15:13:08;93813.28;;;26.90;43.15
71194;BME280;58903;47.210;8.618;2023-05-11T15:15:41;93820.84;;;26.90;43.74
71194;BME280;58903;47.210;8.618;2023-05-11T15:18:08;93823.28;;;26.94;42.94
71194;BME280;58903;47.210;8.618;2023-05-11T15:20:37;93831.56;;;26.94;43.23
71194;BME280;58903;47.210;8.618;2023-05-11T15:23:09;93822.53;;;26.93;43.42
71194;BME280;58903;47.210;8.618;2023-05-11T15:25:47;93823.81;;;26.92;43.27
71194;BME280;58903;47.210;8.618;2023-05-11T15:28:13;93820.66;;;26.88;43.33
71194;BME280;58903;47.210;8.618;2023-05-11T15:30:45;93819.03;;;26.92;43.07